Time;durP1;ratioP1;P1;durP2;ratioP2;P2;SDS_P1;SDS_P2;PMS_P1;PMS_P2;Temp;Humidity;BMP_temperature;BMP_pressure;BME280_temperature;BME280_humidity;BME280_pressure;Samples;Min_cycle;Max_cycle;Signal;HPM_P1;HPM_P2
2022/11/04 00:01:41;;;;;;;119.63;67.70;;;256.20;2252.80;;;;;;5014205;28;20026;-84
2022/11/04 00:04:08;;;;;;;111.35;60.97;;;231.10;2252.80;;;;;;5014332;28;20022;-85
2022/11/04 00:06:35;;;;;;;110.28;66.95;;;231.30;2252.80;;;;;;5013733;28;20064;-84
2022/11/04 00:09:01;;;;;;;121.13;68.07;;;231.00;2252.80;;;;;;5013264;28;20132;-84
2022/11/04 00:14:14;;;;;;;117.63;67.10;;;231.20;2252.80;;;;;;4997382;28;20042;-86
2022/11/04 00:19:25;;;;;;;113.05;62.25;;;231.30;2252.80;;;;;;4974752;28;20478;-87
2022/11/04 00:29:52;;;;;;;104.88;59.03;;;231.10;2252.80;;;;;;4975738;28;20554;-85
2022/11/04 00:35:03;;;;;;;107.90;57.67;;;230.90;2252.80;;;;;;4975758;28;20428;-86
2022/11/04 00:37:29;;;;;;;107.38;59.25;;;231.20;2252.80;;;;;;4974316;28;20057;-84
2022/11/04 00:39:55;;;;;;;108.38;59.92;;;231.20;2252.80;;;;;;4974064;28;20039;-85
2022/11/04 00:42:21;;;;;;;111.13;58.47;;;231.20;2252.80;;;;;;4974103;28;20058;-85
2022/11/04 00:44:47;;;;;;;102.50;56.75;;;231.20;2252.80;;;;;;4977895;28;20368;-84
2022/11/04 00:47:13;;;;;;;110.00;56.03;;;231.20;2252.80;;;;;;4993362;28;20030;-84
2022/11/04 00:49:39;;;;;;;114.28;58.28;;;231.00;2252.80;;;;;;4992360;28;20032;-85
2022/11/04 00:52:06;;;;;;;102.78;55.20;;;231.00;2252.80;;;;;;4994018;28;20407;-85
2022/11/04 00:54:32;;;;;;;101.88;52.85;;;231.00;2252.80;;;;;;4993421;28;20114;-85
2022/11/04 00:56:58;;;;;;;106.72;54.22;;;231.10;2252.80;;;;;;4993042;28;20030;-85
2022/11/04 00:59:25;;;;;;;97.53;55.45;;;231.10;2252.80;;;;;;4977122;28;20026;-86
2022/11/04 01:01:54;;;;;;;102.65;50.38;;;230.90;2252.80;;;;;;4997754;28;20053;-83
2022/11/04 01:04:21;;;;;;;94.22;50.83;;;230.90;2252.80;;;;;;4996491;28;20041;-85
2022/11/04 01:06:47;;;;;;;97.45;51.65;;;231.00;2252.80;;;;;;4993322;28;20053;-84
2022/11/04 01:09:13;;;;;;;88.22;49.08;;;230.90;2252.80;;;;;;4993166;28;20058;-84
2022/11/04 01:11:45;;;;;;;103.80;53.25;;;230.90;2252.80;;;;;;4994606;28;20026;-84
2022/11/04 01:14:13;;;;;;;99.05;54.30;;;231.30;2252.80;;;;;;4993091;28;20581;-83
2022/11/04 01:16:39;;;;;;;99.65;55.33;;;230.80;2252.80;;;;;;4993410;28;20118;-85
2022/11/04 01:19:05;;;;;;;95.70;55.28;;;230.90;2252.80;;;;;;4992929;28;20050;-84
2022/11/04 01:21:31;;;;;;;95.07;51.92;;;230.70;2252.80;;;;;;4993190;28;20583;-85
2022/11/04 01:23:59;;;;;;;104.72;54.88;;;230.70;2252.80;;;;;;4992804;28;20062;-86
2022/11/04 01:26:27;;;;;;;99.05;52.58;;;230.90;2252.80;;;;;;4993307;28;20030;-84
2022/11/04 01:28:54;;;;;;;111.03;59.60;;;230.90;2252.80;;;;;;4994295;28;20030;-84
2022/11/04 01:31:25;;;;;;;122.18;65.03;;;230.90;2252.80;;;;;;4992902;28;20037;-84
2022/11/04 01:33:52;;;;;;;120.13;66.88;;;231.00;2252.80;;;;;;4992866;28;20038;-85
2022/11/04 01:36:19;;;;;;;118.68;63.17;;;231.10;2252.80;;;;;;4992987;28;20022;-84
2022/11/04 01:38:45;;;;;;;100.55;58.10;;;231.00;2252.80;;;;;;4992623;28;20038;-83
2022/11/04 01:41:16;;;;;;;118.97;64.43;;;230.70;2252.80;;;;;;4993070;28;20400;-85
2022/11/04 01:43:51;;;;;;;107.80;59.00;;;205.70;2252.80;;;;;;4993225;28;20037;-82
2022/11/04 01:46:35;;;;;;;100.22;55.25;;;205.70;2252.80;;;;;;4993060;28;20121;-84
2022/11/04 01:49:11;;;;;;;97.40;52.35;;;230.50;2252.80;;;;;;4993134;28;20035;-84
2022/11/04 01:51:38;;;;;;;91.82;50.08;;;230.50;2252.80;;;;;;4993241;28;20022;-84
2022/11/04 01:54:07;;;;;;;83.80;49.83;;;230.60;2252.80;;;;;;4992972;28;20069;-83
2022/11/04 01:56:36;;;;;;;77.85;48.22;;;230.70;2252.80;;;;;;4993177;28;20125;-84
2022/11/04 01:59:11;;;;;;;75.70;44.08;;;230.50;2252.80;;;;;;4994738;28;20023;-85
2022/11/04 02:01:36;;;;;;;78.05;45.28;;;230.50;2252.80;;;;;;4997123;28;20448;-84
2022/11/04 02:06:51;;;;;;;81.78;45.50;;;230.50;2252.80;;;;;;5013289;28;20092;-82
2022/11/04 02:09:18;;;;;;;77.60;45.13;;;205.50;2252.80;;;;;;5005943;28;20376;-84
2022/11/04 02:14:33;;;;;;;83.85;46.80;;;205.70;2252.80;;;;;;4997493;28;20100;-86
2022/11/04 02:17:18;;;;;;;82.65;47.38;;;205.70;2252.80;;;;;;4996728;28;20121;-85
2022/11/04 02:20:17;;;;;;;76.38;41.75;;;205.70;2252.80;;;;;;4996554;28;20380;-85
2022/11/04 02:23:32;;;;;;;73.20;40.97;;;205.70;2252.80;;;;;;4996546;28;20026;-86
2022/11/04 02:26:40;;;;;;;84.63;42.50;;;230.40;2252.80;;;;;;4960018;28;20043;-87
2022/11/04 02:29:31;;;;;;;78.72;42.10;;;205.60;2252.80;;;;;;4996410;28;20388;-86
2022/11/04 02:32:22;;;;;;;64.65;38.20;;;205.60;2252.80;;;;;;4996343;28;20033;-86
2022/11/04 02:34:51;;;;;;;71.72;40.03;;;205.60;2252.80;;;;;;4996427;28;20088;-85
2022/11/04 02:37:33;;;;;;;79.70;44.40;;;205.70;2252.80;;;;;;4995431;28;20094;-85
2022/11/04 02:40:27;;;;;;;77.53;43.95;;;205.70;2252.80;;;;;;4996019;28;20029;-86
2022/11/04 02:43:11;;;;;;;81.97;44.17;;;205.70;2252.80;;;;;;4995725;28;20030;-86
2022/11/04 02:45:43;;;;;;;75.82;43.15;;;205.70;2252.80;;;;;;4996230;28;20033;-87
2022/11/04 02:48:32;;;;;;;62.60;38.60;;;205.40;2252.80;;;;;;4976584;28;20110;-86
2022/11/04 02:51:04;;;;;;;60.38;37.15;;;205.60;2252.80;;;;;;4962706;28;20444;-87
2022/11/04 02:54:00;;;;;;;65.83;38.90;;;205.60;2252.80;;;;;;4976633;28;20057;-87
2022/11/04 02:56:27;;;;;;;65.25;38.08;;;205.40;2252.80;;;;;;4966252;28;20054;-86
2022/11/04 02:58:57;;;;;;;65.45;39.28;;;205.60;2252.80;;;;;;4976487;28;20027;-86
2022/11/04 03:01:29;;;;;;;60.70;35.45;;;205.70;2252.80;;;;;;4976390;28;20038;-86
2022/11/04 03:04:04;;;;;;;59.85;36.08;;;205.70;2252.80;;;;;;4976277;28;20069;-88
2022/11/04 03:06:32;;;;;;;59.83;39.28;;;205.60;2252.80;;;;;;4976594;28;20110;-86
2022/11/04 03:09:01;;;;;;;59.22;36.95;;;205.40;2252.80;;;;;;4976048;28;20058;-88
2022/11/04 03:11:28;;;;;;;66.65;37.13;;;205.50;2252.80;;;;;;4975029;28;20031;-87
2022/11/04 03:13:58;;;;;;;63.72;37.45;;;205.20;2252.80;;;;;;4976184;28;20027;-86
2022/11/04 03:16:37;;;;;;;61.75;38.13;;;205.30;2252.80;;;;;;4975667;28;20089;-86
2022/11/04 03:19:09;;;;;;;61.20;37.60;;;205.20;2252.80;;;;;;4975867;28;20057;-87
2022/11/04 03:21:39;;;;;;;56.85;36.72;;;205.30;2252.80;;;;;;4975925;28;20034;-88
2022/11/04 03:24:05;;;;;;;59.00;38.00;;;205.30;2252.80;;;;;;4975908;28;20034;-86
2022/11/04 03:26:46;;;;;;;59.55;37.13;;;205.40;2252.80;;;;;;4975881;28;20031;-86
2022/11/04 03:29:36;;;;;;;58.30;35.75;;;205.50;2252.80;;;;;;4975968;28;20041;-86
2022/11/04 03:32:08;;;;;;;48.00;30.50;;;;;;;;;;4975277;28;20484;-86
2022/11/04 03:34:36;;;;;;;52.60;32.60;;;;;;;;;;4975723;28;20023;-86
2022/11/04 03:37:02;;;;;;;55.58;33.70;;;205.30;2252.80;;;;;;4975058;28;20432;-87
2022/11/04 03:39:28;;;;;;;57.47;35.47;;;205.10;2252.80;;;;;;4975611;28;20022;-87
2022/11/04 03:42:02;;;;;;;56.80;36.33;;;205.30;2252.80;;;;;;4975765;28;20062;-89
2022/11/04 03:44:29;;;;;;;58.95;35.40;;;;;;;;;;4975866;28;20077;-89
2022/11/04 03:46:58;;;;;;;59.50;34.42;;;;;;;;;;4975688;28;20031;-87
2022/11/04 03:49:24;;;;;;;54.15;34.80;;;;;;;;;;4975656;28;20030;-87
2022/11/04 03:51:52;;;;;;;55.05;32.20;;;;;;;;;;4974584;28;20042;-87
2022/11/04 03:54:18;;;;;;;54.00;33.70;;;;;;;;;;4974894;28;20027;-87
2022/11/04 03:56:55;;;;;;;53.60;32.45;;;;;;;;;;4975055;28;20472;-86
2022/11/04 03:59:37;;;;;;;53.63;30.25;;;;;;;;;;4974845;28;20023;-86
2022/11/04 04:02:23;;;;;;;45.25;29.13;;;;;;;;;;4974938;28;20471;-87
2022/11/04 04:05:06;;;;;;;49.78;32.55;;;;;;;;;;4958667;28;20039;-87
2022/11/04 04:07:44;;;;;;;51.45;31.70;;;;;;;;;;4975143;28;20023;-87
2022/11/04 04:13:01;;;;;;;48.13;30.77;;;;;;;;;;4978166;28;20042;-88
2022/11/04 04:15:29;;;;;;;48.90;31.67;;;;;;;;;;4974131;28;20141;-88
2022/11/04 04:18:02;;;;;;;52.80;31.77;;;;;;;;;;4960849;28;20110;-86
2022/11/04 04:20:33;;;;;;;48.47;30.40;;;;;;;;;;4974693;28;20104;-87
2022/11/04 04:23:01;;;;;;;46.33;29.92;;;;;;;;;;4974298;28;20023;-88
2022/11/04 04:28:15;;;;;;;47.28;28.75;;;;;;;;;;4975761;28;20412;-86
2022/11/04 04:30:46;;;;;;;57.03;33.92;;;;;;;;;;4974449;28;20392;-86
2022/11/04 04:33:17;;;;;;;60.88;36.67;;;;;;;;;;4974113;28;20089;-86
2022/11/04 04:35:45;;;;;;;50.22;30.83;;;;;;;;;;4958003;28;20038;-87
2022/11/04 04:46:52;;;;;;;49.47;28.90;;;204.90;2252.80;;;;;;4956620;29;20437;-86
2022/11/04 04:49:18;;;;;;;46.28;27.27;;;204.80;2252.80;;;;;;4954436;29;20212;-87
2022/11/04 04:51:46;;;;;;;46.08;28.52;;;204.80;2252.80;;;;;;4955053;29;20389;-87
2022/11/04 04:54:15;;;;;;;49.28;30.52;;;180.10;2252.80;;;;;;4954704;29;20031;-87
2022/11/04 04:56:42;;;;;;;47.10;29.42;;;;;;;;;;4955084;29;20033;-88
2022/11/04 04:59:08;;;;;;;46.15;28.00;;;;;;;;;;4955081;29;20027;-86
2022/11/04 05:01:34;;;;;;;45.95;27.52;;;;;;;;;;4954770;29;20051;-88
2022/11/04 05:04:00;;;;;;;45.38;28.20;;;;;;;;;;4955056;29;20433;-87
2022/11/04 05:06:27;;;;;;;49.15;27.67;;;;;;;;;;4955004;29;20436;-88
2022/11/04 05:08:53;;;;;;;43.08;26.80;;;;;;;;;;4954749;29;20023;-88
2022/11/04 05:11:19;;;;;;;44.70;27.85;;;;;;;;;;4954617;29;20113;-88
2022/11/04 05:13:45;;;;;;;48.47;27.60;;;;;;;;;;4954781;29;20125;-89
2022/11/04 05:16:15;;;;;;;46.10;28.63;;;;;;;;;;4954558;29;20031;-87
2022/11/04 05:18:41;;;;;;;49.10;29.80;;;;;;;;;;4954384;29;20122;-87
2022/11/04 05:21:11;;;;;;;43.85;28.48;;;;;;;;;;4938593;29;20062;-87
2022/11/04 05:23:37;;;;;;;46.67;28.45;;;;;;;;;;4954263;29;20034;-87
2022/11/04 05:26:10;;;;;;;52.05;28.65;;;;;;;;;;4955743;29;20078;-87
2022/11/04 05:28:42;;;;;;;52.03;29.48;;;;;;;;;;4964927;28;20030;-87
2022/11/04 05:31:09;;;;;;;50.58;29.33;;;;;;;;;;4995309;28;20039;-88
2022/11/04 05:33:36;;;;;;;55.30;30.48;;;;;;;;;;4994155;28;20033;-87
2022/11/04 05:36:08;;;;;;;57.90;30.50;;;;;;;;;;4981348;28;20455;-87
2022/11/04 05:38:41;;;;;;;55.22;31.77;;;;;;;;;;4968799;28;20048;-86
2022/11/04 05:41:27;;;;;;;52.63;30.83;;;;;;;;;;4959888;28;20429;-87
2022/11/04 05:44:19;;;;;;;51.33;32.53;;;;;;;;;;4960283;28;20023;-86
2022/11/04 05:47:08;;;;;;;58.10;33.50;;;;;;;;;;4950848;28;20038;-87
2022/11/04 05:49:36;;;;;;;57.70;31.88;;;;;;;;;;4941722;29;20121;-84
2022/11/04 05:52:06;;;;;;;51.00;30.67;;;;;;;;;;4958592;28;20039;-87
2022/11/04 05:54:38;;;;;;;71.15;40.50;;;;;;;;;;4942136;29;20035;-85
2022/11/04 05:57:04;;;;;;;69.13;41.78;;;;;;;;;;4957913;29;20023;-86
2022/11/04 05:59:32;;;;;;;94.25;43.08;;;;;;;;;;4958022;28;20110;-87
2022/11/04 06:01:58;;;;;;;95.15;44.30;;;;;;;;;;4957966;29;20030;-87
2022/11/04 06:04:24;;;;;;;66.10;40.78;;;;;;;;;;4957892;29;20075;-87
2022/11/04 06:06:51;;;;;;;73.50;39.72;;;;;;;;;;4957968;29;20523;-86
2022/11/04 06:09:17;;;;;;;77.72;43.92;;;;;;;;;;4941992;29;20027;-87
2022/11/04 06:11:44;;;;;;;71.47;40.80;;;;;;;;;;4957573;29;20042;-86
2022/11/04 06:14:12;;;;;;;68.55;38.72;;;;;;;;;;4957470;29;20062;-87
2022/11/04 06:16:41;;;;;;;73.50;37.92;;;;;;;;;;4957688;29;20449;-88
2022/11/04 06:19:07;;;;;;;63.17;34.55;;;;;;;;;;4957447;29;20019;-86
2022/11/04 06:21:33;;;;;;;60.55;34.75;;;;;;;;;;4957894;29;20031;-87
2022/11/04 06:24:01;;;;;;;65.65;38.08;;;;;;;;;;4957850;29;20469;-87
2022/11/04 06:26:29;;;;;;;75.53;44.75;;;;;;;;;;4957740;29;20034;-87
2022/11/04 06:28:56;;;;;;;73.10;45.72;;;;;;;;;;4940619;29;20035;-85
2022/11/04 06:31:22;;;;;;;124.85;77.53;;;;;;;;;;4938628;29;20031;-87
2022/11/04 06:33:49;;;;;;;83.45;52.05;;;;;;;;;;4937493;29;20413;-87
2022/11/04 06:36:15;;;;;;;71.53;42.88;;;;;;;;;;4940444;29;20501;-86
2022/11/04 06:38:42;;;;;;;67.40;38.72;;;;;;;;;;4970903;28;20058;-87
2022/11/04 06:41:11;;;;;;;62.42;38.65;;;;;;;;;;4980583;28;20022;-86
2022/11/04 06:43:37;;;;;;;60.45;37.72;;;;;;;;;;4981080;28;20031;-86
2022/11/04 06:46:04;;;;;;;69.32;39.58;;;;;;;;;;4980354;28;20060;-88
2022/11/04 06:48:33;;;;;;;57.67;38.22;;;;;;;;;;4981308;28;20023;-87
2022/11/04 06:51:00;;;;;;;76.57;45.33;;;;;;;;;;4980329;28;20030;-87
2022/11/04 06:53:26;;;;;;;73.75;39.25;;;;;;;;;;4976228;28;20027;-87
2022/11/04 06:55:53;;;;;;;62.63;39.67;;;;;;;;;;4976488;28;20429;-88
2022/11/04 06:58:19;;;;;;;64.68;40.60;;;;;;;;;;4976330;28;20038;-87
2022/11/04 07:00:52;;;;;;;69.22;42.47;;;;;;;;;;4976267;28;20037;-87
2022/11/04 07:03:18;;;;;;;69.47;41.33;;;;;;;;;;4976494;28;20031;-89
2022/11/04 07:05:44;;;;;;;61.70;36.42;;;205.60;2252.80;;;;;;4976477;28;20042;-87
2022/11/04 07:08:10;;;;;;;57.85;39.60;;;205.60;2252.80;;;;;;4976224;28;20065;-89
2022/11/04 07:10:36;;;;;;;55.58;38.72;;;205.50;2252.80;;;;;;4976788;28;20037;-86
2022/11/04 07:13:02;;;;;;;67.10;39.75;;;205.60;2252.80;;;;;;4976230;28;20122;-89
2022/11/04 07:15:31;;;;;;;59.78;37.60;;;;;;;;;;4975986;28;20078;-88
2022/11/04 07:17:58;;;;;;;55.13;36.78;;;230.40;2252.80;;;;;;4983698;28;20034;-87
2022/11/04 07:20:25;;;;;;;70.97;44.10;;;205.70;2252.80;;;;;;4983404;28;20018;-88
2022/11/04 07:22:53;;;;;;;65.50;41.92;;;230.40;2252.80;;;;;;4975943;28;20031;-87
2022/11/04 07:25:19;;;;;;;62.08;40.75;;;205.50;2252.80;;;;;;4976061;28;20027;-87
2022/11/04 07:27:45;;;;;;;52.85;35.45;;;205.70;2252.80;;;;;;4975843;28;20030;-86
2022/11/04 07:30:11;;;;;;;54.53;36.85;;;230.50;2252.80;;;;;;4975924;28;20428;-85
2022/11/04 07:32:37;;;;;;;59.08;37.25;;;230.50;2252.80;;;;;;4976005;28;20031;-87
2022/11/04 07:35:04;;;;;;;60.33;39.22;;;205.70;2252.80;;;;;;4975875;28;20039;-86
2022/11/04 07:37:30;;;;;;;64.15;43.40;;;230.50;2252.80;;;;;;4975810;28;20054;-87
2022/11/04 07:39:56;;;;;;;74.60;45.55;;;230.40;2252.80;;;;;;4975821;28;20468;-87
2022/11/04 07:42:22;;;;;;;55.95;38.97;;;230.50;2252.80;;;;;;4975725;28;20042;-84
2022/11/04 07:44:47;;;;;;;60.25;39.00;;;230.60;2252.80;;;;;;4975728;28;20539;-87
2022/11/04 07:47:13;;;;;;;61.80;38.70;;;231.00;2252.80;;;;;;4975802;28;20113;-86
2022/11/04 07:49:39;;;;;;;65.57;40.40;;;230.70;2252.80;;;;;;4975498;28;20045;-87
2022/11/04 07:52:05;;;;;;;51.83;37.30;;;230.60;2252.80;;;;;;4975978;28;20026;-86
2022/11/04 07:54:31;;;;;;;49.65;32.78;;;230.60;2252.80;;;;;;4975742;28;20066;-87
2022/11/04 07:56:57;;;;;;;56.50;39.33;;;230.70;2252.80;;;;;;4974527;28;20432;-85
2022/11/04 07:59:24;;;;;;;54.35;37.67;;;230.80;2252.80;;;;;;4975410;28;20085;-87
2022/11/04 08:01:53;;;;;;;61.00;41.75;;;230.80;2252.80;;;;;;4975530;28;20070;-89
2022/11/04 08:04:19;;;;;;;58.28;38.55;;;231.00;2252.80;;;;;;4975537;28;20030;-87
2022/11/04 08:06:48;;;;;;;54.97;37.65;;;231.00;2252.80;;;;;;4975353;28;20053;-87
2022/11/04 08:09:14;;;;;;;61.63;40.00;;;230.90;2252.80;;;;;;4975365;28;20073;-88
2022/11/04 08:11:40;;;;;;;62.33;40.80;;;230.90;2252.80;;;;;;4959264;28;20444;-87
2022/11/04 08:14:09;;;;;;;70.30;42.22;;;231.00;2252.80;;;;;;4975154;28;20027;-86
2022/11/04 08:16:35;;;;;;;66.65;46.03;;;231.10;2252.80;;;;;;4975034;28;20031;-87
2022/11/04 08:19:01;;;;;;;69.63;45.42;;;231.10;2252.80;;;;;;4974944;28;20042;-88
2022/11/04 08:21:29;;;;;;;72.07;49.33;;;231.30;2252.80;;;;;;4975102;28;20027;-87
2022/11/04 08:23:56;;;;;;;85.43;50.70;;;256.10;2252.80;;;;;;4973743;28;20421;-85
2022/11/04 08:26:22;;;;;;;77.60;49.08;;;256.30;2252.80;;;;;;4974124;28;20086;-88
2022/11/04 08:28:51;;;;;;;75.00;45.30;;;;;;;;;;4975072;28;20480;-88
2022/11/04 08:31:26;;;;;;;68.25;45.75;;;;;;;;;;4974883;28;20480;-90
2022/11/04 08:33:53;;;;;;;69.68;46.33;;;;;;;;;;4974956;28;20046;-87
2022/11/04 08:36:25;;;;;;;72.88;46.50;;;;;;;;;;4972380;28;20031;-86
2022/11/04 08:38:51;;;;;;;64.28;44.83;;;;;;;;;;4973573;28;20050;-86
2022/11/04 08:41:18;;;;;;;68.50;46.72;;;;;;;;;;4974240;28;20023;-86
2022/11/04 08:43:45;;;;;;;67.75;44.83;;;;;;;;;;4974453;28;20019;-86
2022/11/04 08:46:11;;;;;;;66.90;45.10;;;;;;;;;;4969326;28;20024;-86
2022/11/04 08:48:38;;;;;;;66.82;44.03;;;;;;;;;;4971122;28;20016;-86
2022/11/04 08:51:05;;;;;;;59.45;40.95;;;;;;;;;;4988110;28;20591;-86
2022/11/04 08:53:32;;;;;;;56.38;38.80;;;;;;;;;;4974195;28;20125;-86
2022/11/04 08:55:58;;;;;;;58.67;43.08;;;;;;;;;;4974141;28;20035;-85
2022/11/04 08:58:24;;;;;;;68.88;45.90;;;;;;;;;;4974309;28;20023;-83
2022/11/04 09:00:51;;;;;;;67.95;44.80;;;;;;;;;;4974454;28;20027;-84
2022/11/04 09:03:17;;;;;;;73.57;50.67;;;;;;;;;;4975313;28;20435;-84
2022/11/04 09:05:47;;;;;;;84.57;55.08;;;;;;;;;;4974034;28;20023;-86
2022/11/04 09:08:15;;;;;;;76.88;51.03;;;;;;;;;;4974335;28;20535;-85
2022/11/04 09:10:45;;;;;;;56.90;38.65;;;;;;;;;;4974430;28;20365;-83
2022/11/04 09:13:12;;;;;;;62.50;39.75;;;;;;;;;;4973912;28;20436;-85
2022/11/04 09:15:38;;;;;;;49.92;30.35;;;;;;;;;;4974507;28;20073;-84
2022/11/04 09:18:05;;;;;;;53.33;35.92;;;;;;;;;;4974714;28;20114;-84
2022/11/04 09:20:31;;;;;;;50.53;32.58;;;;;;;;;;4974318;28;20050;-82
2022/11/04 09:22:58;;;;;;;44.25;29.83;;;;;;;;;;4974235;28;20035;-83
2022/11/04 09:25:24;;;;;;;43.35;28.65;;;;;;;;;;4974369;28;20388;-85
2022/11/04 09:27:50;;;;;;;44.60;29.73;;;;;;;;;;4974160;28;21592;-81
2022/11/04 09:30:16;;;;;;;49.97;32.88;;;;;;;;;;4973431;28;20024;-80
2022/11/04 09:32:42;;;;;;;47.55;32.08;;;;;;;;;;4973538;28;20039;-80
2022/11/04 09:35:08;;;;;;;52.17;33.15;;;;;;;;;;4973415;28;20049;-79
2022/11/04 09:37:34;;;;;;;46.97;31.30;;;;;;;;;;4973247;28;20062;-78
2022/11/04 09:40:00;;;;;;;54.42;36.22;;;;;;;;;;4973232;28;20023;-80
2022/11/04 09:43:05;;;;;;;49.05;34.22;;;;;;;;;;4973335;28;20117;-81
2022/11/04 09:45:32;;;;;;;61.80;39.30;;;;;;;;;;4917950;29;20019;-79
2022/11/04 09:48:01;;;;;;;58.55;40.05;;;;;;;;;;4934021;29;20039;-79
2022/11/04 09:50:28;;;;;;;71.60;50.95;;;;;;;;;;4954166;28;20042;-77
2022/11/04 09:52:56;;;;;;;67.35;41.92;;;;;;;;;;4973296;28;20035;-79
2022/11/04 09:55:40;;;;;;;65.88;47.95;;;;;;;;;;4973147;28;20054;-79
2022/11/04 09:58:09;;;;;;;53.72;36.67;;;;;;;;;;4973352;28;20027;-78
2022/11/04 10:00:37;;;;;;;58.67;40.78;;;;;;;;;;4973300;28;20485;-77
2022/11/04 10:03:19;;;;;;;60.55;41.58;;;;;;;;;;4972904;28;20477;-78
2022/11/04 10:05:45;;;;;;;56.42;37.83;;;;;;;;;;4973318;28;20030;-77
2022/11/04 10:08:18;;;;;;;78.05;52.83;;;;;;;;;;4974566;28;20027;-79
2022/11/04 10:10:53;;;;;;;61.28;40.78;;;;;;;;;;4972981;28;20031;-80
2022/11/04 10:13:28;;;;;;;117.00;79.95;;;;;;;;;;4973278;28;20094;-81
2022/11/04 10:15:57;;;;;;;69.18;44.95;;;;;;;;;;4973084;28;20491;-79
2022/11/04 10:18:34;;;;;;;83.00;54.67;;;;;;;;;;4973368;28;20058;-79
2022/11/04 10:21:00;;;;;;;66.75;44.42;;;;;;;;;;4975345;28;20117;-78
2022/11/04 10:23:26;;;;;;;62.05;39.40;;;;;;;;;;4977785;28;20054;-78
2022/11/04 10:25:52;;;;;;;70.63;48.22;;;;;;;;;;4977875;28;20030;-78
2022/11/04 10:28:19;;;;;;;66.60;40.85;;;;;;;;;;4976757;28;20027;-79
2022/11/04 10:30:49;;;;;;;66.00;45.55;;;;;;;;;;4977136;28;20026;-78
2022/11/04 10:33:25;;;;;;;70.50;44.40;;;;;;;;;;4976436;28;20380;-77
2022/11/04 10:35:56;;;;;;;72.03;44.28;;;;;;;;;;4977597;28;20045;-80
2022/11/04 10:38:22;;;;;;;65.43;42.60;;;;;;;;;;4975972;28;20050;-80
2022/11/04 10:40:49;;;;;;;72.60;46.90;;;;;;;;;;4977853;28;20491;-81
2022/11/04 10:43:18;;;;;;;69.75;43.40;;;;;;;;;;4976391;28;20085;-79
2022/11/04 10:45:52;;;;;;;61.67;39.95;;;;;;;;;;4975982;28;20027;-79
2022/11/04 10:48:25;;;;;;;54.42;36.90;;;;;;;;;;4976291;28;20385;-78
2022/11/04 10:50:54;;;;;;;50.70;32.22;;;;;;;;;;4976783;28;20546;-80
2022/11/04 10:53:22;;;;;;;48.85;33.25;;;;;;;;;;4975943;28;20046;-78
2022/11/04 10:55:51;;;;;;;55.72;36.10;;;;;;;;;;4976020;28;20104;-78
2022/11/04 10:58:25;;;;;;;62.20;40.33;;;;;;;;;;4975696;28;20038;-79
2022/11/04 11:00:52;;;;;;;49.42;32.88;;;;;;;;;;4975867;28;20468;-79
2022/11/04 11:03:26;;;;;;;46.38;32.40;;;;;;;;;;4977377;28;20346;-80
2022/11/04 11:05:52;;;;;;;46.60;30.80;;;;;;;;;;4975606;28;20487;-78
2022/11/04 11:08:36;;;;;;;39.60;28.63;;;;;;;;;;4975829;28;20456;-79
2022/11/04 11:11:02;;;;;;;37.53;25.80;;;;;;;;;;4976573;28;20034;-81
2022/11/04 11:13:33;;;;;;;46.50;28.00;;;;;;;;;;4975040;28;20031;-79
2022/11/04 11:16:06;;;;;;;41.30;25.63;;;;;;;;;;4977132;28;20023;-79
2022/11/04 11:18:32;;;;;;;36.63;25.33;;;;;;;;;;4975967;28;20042;-78
2022/11/04 11:21:07;;;;;;;34.20;23.48;;;;;;;;;;4975450;28;20116;-79
2022/11/04 11:23:35;;;;;;;32.40;22.08;;;;;;;;;;4975520;28;20031;-79
2022/11/04 11:26:02;;;;;;;40.75;26.95;;;;;;;;;;4976826;28;20405;-78
2022/11/04 11:28:29;;;;;;;47.78;28.70;;;;;;;;;;4975471;28;20059;-80
2022/11/04 11:31:07;;;;;;;51.17;32.92;;;;;;;;;;4975241;28;20027;-77
2022/11/04 11:33:37;;;;;;;45.95;33.65;;;;;;;;;;4974504;28;20031;-79
2022/11/04 11:36:10;;;;;;;71.93;41.00;;;;;;;;;;4974499;28;20109;-79
2022/11/04 11:38:37;;;;;;;45.40;29.20;;;;;;;;;;4976132;28;20047;-79
2022/11/04 11:41:22;;;;;;;37.22;25.25;;;;;;;;;;4974227;28;20118;-79
2022/11/04 11:43:52;;;;;;;40.60;26.98;;;;;;;;;;4979278;28;20039;-79
2022/11/04 11:46:26;;;;;;;25.45;17.25;;;;;;;;;;4966872;28;20031;-78
2022/11/04 11:48:56;;;;;;;38.20;24.10;;;;;;;;;;4973721;28;20023;-78
2022/11/04 11:51:26;;;;;;;39.83;26.52;;;;;;;;;;4973198;28;20058;-79
2022/11/04 11:54:13;;;;;;;35.22;21.08;;;;;;;;;;4973688;28;20039;-77
2022/11/04 11:56:45;;;;;;;38.15;23.40;;;;;;;;;;4953578;28;20074;-78
2022/11/04 11:59:18;;;;;;;38.60;26.08;;;;;;;;;;4977624;28;20054;-78
2022/11/04 12:01:49;;;;;;;31.85;20.13;;;;;;;;;;4996015;28;20023;-78
2022/11/04 12:04:19;;;;;;;32.97;20.67;;;;;;;;;;4978433;28;20050;-79
2022/11/04 12:06:55;;;;;;;43.35;26.10;;;;;;;;;;4972470;28;20361;-78
2022/11/04 12:09:35;;;;;;;40.03;25.45;;;;;;;;;;4963717;28;20029;-78
2022/11/04 12:12:08;;;;;;;40.95;26.02;;;;;;;;;;4971959;28;20322;-79
2022/11/04 12:14:35;;;;;;;37.47;24.25;;;;;;;;;;4972301;28;20067;-78
2022/11/04 12:17:07;;;;;;;38.08;22.40;;;;;;;;;;4970918;28;20468;-80
2022/11/04 12:19:54;;;;;;;32.95;19.98;;;;;;;;;;4974943;28;20019;-79
2022/11/04 12:22:29;;;;;;;44.20;30.90;;;;;;;;;;4971858;28;20054;-79
2022/11/04 12:25:04;;;;;;;33.40;21.83;;;;;;;;;;4973403;28;20433;-79
2022/11/04 12:27:46;;;;;;;38.58;23.80;;;;;;;;;;4974976;28;20023;-79
2022/11/04 12:30:20;;;;;;;43.70;25.05;;;;;;;;;;4971129;28;20480;-78
2022/11/04 12:32:53;;;;;;;42.75;24.85;;;;;;;;;;4974261;28;20551;-79
2022/11/04 12:35:25;;;;;;;38.47;21.88;;;;;;;;;;4974557;28;20030;-79
2022/11/04 12:38:06;;;;;;;30.42;21.05;;;;;;;;;;4974581;28;20047;-78
2022/11/04 12:40:51;;;;;;;27.05;18.08;;;;;;;;;;4973669;28;20034;-78
2022/11/04 12:43:20;;;;;;;32.10;18.63;;;;;;;;;;4974618;28;20037;-79
2022/11/04 12:46:06;;;;;;;30.48;19.85;;;;;;;;;;4973574;28;20023;-78
2022/11/04 12:48:51;;;;;;;41.00;24.52;;;;;;;;;;4957188;28;20043;-77
2022/11/04 12:51:36;;;;;;;39.00;21.40;;;;;;;;;;4973483;28;20022;-79
2022/11/04 12:54:12;;;;;;;38.90;21.80;;;;;;;;;;4973801;28;20034;-78
2022/11/04 12:56:40;;;;;;;41.25;25.75;;;;;;;;;;4974127;28;20046;-78
2022/11/04 12:59:21;;;;;;;43.20;25.92;;;;;;;;;;4974955;28;20015;-80
2022/11/04 13:01:50;;;;;;;44.22;25.30;;;;;;;;;;4973958;28;20023;-79
2022/11/04 13:04:38;;;;;;;46.65;28.02;;;;;;;;;;4973486;28;20392;-79
2022/11/04 13:07:09;;;;;;;51.47;35.10;;;;;;;;;;4973568;28;20388;-79
2022/11/04 13:09:41;;;;;;;61.28;41.83;;;;;;;;;;4973483;28;20384;-79
2022/11/04 13:12:10;;;;;;;57.35;36.72;;;;;;;;;;4973104;28;20027;-79
2022/11/04 13:14:47;;;;;;;37.17;24.65;;;;;;;;;;4973745;28;20051;-79
2022/11/04 13:17:16;;;;;;;50.50;30.00;;;;;;;;;;4973573;28;20483;-78
2022/11/04 13:19:48;;;;;;;59.88;35.30;;;;;;;;;;4973095;28;20065;-78
2022/11/04 13:22:22;;;;;;;93.50;60.90;;;;;;;;;;4973552;28;20015;-78
2022/11/04 13:24:51;;;;;;;86.70;57.38;;;;;;;;;;4973271;28;20118;-78
2022/11/04 13:27:36;;;;;;;82.53;51.80;;;;;;;;;;4972952;28;20404;-79
2022/11/04 13:30:26;;;;;;;64.28;34.67;;;;;;;;;;4973608;28;20131;-78
2022/11/04 13:33:06;;;;;;;67.22;34.97;;;;;;;;;;4973195;28;20035;-78
2022/11/04 13:35:35;;;;;;;62.92;28.50;;;;;;;;;;4974832;28;20027;-79
2022/11/04 13:38:11;;;;;;;48.47;27.88;;;;;;;;;;4974426;28;20043;-79
2022/11/04 13:40:43;;;;;;;57.70;33.08;;;;;;;;;;4973084;28;20085;-77
2022/11/04 13:43:37;;;;;;;110.60;64.30;;;;;;;;;;4973247;28;20034;-77
2022/11/04 13:46:04;;;;;;;104.70;62.38;;;;;;;;;;4973066;28;20054;-77
2022/11/04 13:48:31;;;;;;;77.13;46.13;;;;;;;;;;4973424;28;20089;-77
2022/11/04 13:51:08;;;;;;;68.78;41.67;;;;;;;;;;4974333;28;20477;-78
2022/11/04 13:53:47;;;;;;;56.53;33.97;;;;;;;;;;4973468;28;20114;-78
2022/11/04 13:56:29;;;;;;;46.45;28.77;;;;;;;;;;4991690;28;20077;-78
2022/11/04 13:58:57;;;;;;;42.25;26.42;;;;;;;;;;4970884;28;20039;-78
2022/11/04 14:01:23;;;;;;;48.10;30.00;;;;;;;;;;4976422;28;20035;-77
2022/11/04 14:04:01;;;;;;;50.85;23.20;;;;;;;;;;4977065;28;20077;-76
2022/11/04 14:06:47;;;;;;;40.15;23.63;;;;;;;;;;4976632;28;20015;-80
2022/11/04 14:09:31;;;;;;;35.42;23.85;;;;;;;;;;4975573;28;20097;-80
2022/11/04 14:12:12;;;;;;;37.25;21.08;;;;;;;;;;4977027;28;20027;-82
2022/11/04 14:14:39;;;;;;;37.88;20.73;;;;;;;;;;4976999;28;20480;-86
2022/11/04 14:17:32;;;;;;;67.63;42.70;;;;;;;;;;4977450;28;20026;-86
2022/11/04 14:19:58;;;;;;;61.60;33.72;;;;;;;;;;4955834;28;20388;-85